Time;durP1;ratioP1;P1;durP2;ratioP2;P2;SDS_P1;SDS_P2;PMS_P1;PMS_P2;Temp;Humidity;BMP_temperature;BMP_pressure;BME280_temperature;BME280_humidity;BME280_pressure;Samples;Min_cycle;Max_cycle;Signal;HPM_P1;HPM_P2
2023/03/08 00:01:57;;;;;;;;;;;;;;;-145.06;100.00;53859.97;10533873;28;19931;-82
2023/03/08 00:06:57;;;;;;;;;;;;;;;-145.06;100.00;53841.75;10534022;28;19916;-81
2023/03/08 00:11:57;;;;;;;;;;;;;;;-145.06;100.00;53849.84;10515204;28;19912;-82
2023/03/08 00:16:57;;;;;;;;;;;;;;;-145.06;100.00;53831.63;10515983;28;20367;-82
2023/03/08 00:21:58;;;;;;;;;;;;;;;-145.06;100.00;53807.31;10514701;28;19923;-81
2023/03/08 00:26:58;;;;;;;;;;;;;;;-145.06;100.00;53851.88;10512240;28;19962;-82
2023/03/08 00:31:58;;;;;;;;;;;;;;;-145.06;100.00;53845.81;10514533;28;19912;-81
2023/03/08 00:36:59;;;;;;;;;;;;;;;-145.06;100.00;53795.19;10533535;28;19911;-82
2023/03/08 00:41:59;;;;;;;;;;;;;;;-145.06;100.00;53849.84;10512099;28;19923;-81
2023/03/08 00:46:59;;;;;;;;;;;;;;;-145.06;100.00;53831.63;10532633;28;19916;-81
2023/03/08 00:51:59;;;;;;;;;;;;;;;-145.06;100.00;53831.63;10513195;28;19912;-82
2023/03/08 00:57:00;;;;;;;;;;;;;;;-145.06;100.00;53835.69;10511400;28;19912;-83
2023/03/08 01:02:00;;;;;;;;;;;;;;;-145.06;100.00;53825.56;10513365;28;19916;-82
2023/03/08 01:07:00;;;;;;;;;;;;;;;-145.06;100.00;53851.88;10510809;28;19912;-83
2023/03/08 01:12:00;;;;;;;;;;;;;;;-145.06;100.00;53801.25;10531261;28;19912;-81
2023/03/08 01:17:00;;;;;;;;;;;;;;;-145.06;100.00;53827.59;10512722;28;19911;-81
2023/03/08 01:22:01;;;;;;;;;;;;;;;-145.06;100.00;53795.19;10529179;28;19916;-82
2023/03/08 01:27:01;;;;;;;;;;;;;;;-145.06;100.00;53821.50;10523440;28;19919;-81
2023/03/08 01:32:01;;;;;;;;;;;;;;;-145.06;100.00;53805.31;10511291;28;19919;-81
2023/03/08 01:37:02;;;;;;;;;;;;;;;-145.06;100.00;53866.06;10512433;28;19912;-82
2023/03/08 01:42:06;;;;;;;;;;;;;;;-145.06;100.00;53839.72;10511373;28;19920;-82
2023/03/08 01:47:12;;;;;;;;;;;;;;;-145.06;100.00;53797.22;10528062;28;19919;-81
2023/03/08 01:52:14;;;;;;;;;;;;;;;-145.06;100.00;53823.53;10506806;28;19935;-81
2023/03/08 01:57:17;;;;;;;;;;;;;;;-145.06;100.00;53811.38;10529537;28;19995;-83
2023/03/08 02:02:25;;;;;;;;;;;;;;;-145.06;100.00;53853.91;10528432;28;19916;-83
2023/03/08 02:07:26;;;;;;;;;;;;;;;-145.06;100.00;53853.91;10527919;28;19949;-83
2023/03/08 02:12:26;;;;;;;;;;;;;;;-145.06;100.00;53868.09;10510882;28;19919;-82
2023/03/08 02:17:27;;;;;;;;;;;;;;;-145.06;100.00;53845.81;10526888;28;19916;-81
2023/03/08 02:22:27;;;;;;;;;;;;;;;-145.06;100.00;53851.88;10505046;28;19955;-83
2023/03/08 02:27:27;;;;;;;;;;;;;;;-145.06;100.00;53851.88;10510618;28;20404;-83
2023/03/08 02:32:28;;;;;;;;;;;;;;;-145.06;100.00;53876.19;10511170;28;19978;-83
2023/03/08 02:37:28;;;;;;;;;;;;;;;-145.06;100.00;53831.63;10510656;28;19951;-83
2023/03/08 02:42:28;;;;;;;;;;;;;;;-145.06;100.00;53823.53;10525318;28;19912;-82
2023/03/08 02:47:28;;;;;;;;;;;;;;;-145.06;100.00;53835.69;10510210;28;19918;-83
2023/03/08 02:52:28;;;;;;;;;;;;;;;-145.06;100.00;53849.84;10501579;28;20280;-81
2023/03/08 02:57:29;;;;;;;;;;;;;;;-145.06;100.00;53847.84;10509437;28;19951;-83
2023/03/08 03:02:31;;;;;;;;;;;;;;;-145.06;100.00;53851.88;10512039;28;20014;-83
2023/03/08 03:07:34;;;;;;;;;;;;;;;-145.06;100.00;53827.59;10517995;28;19912;-82
2023/03/08 03:12:34;;;;;;;;;;;;;;;-145.06;100.00;53823.53;10536253;28;19912;-82
2023/03/08 03:17:35;;;;;;;;;;;;;;;-145.06;100.00;53884.28;10518735;28;20337;-82
2023/03/08 03:22:36;;;;;;;;;;;;;;;-145.06;100.00;53851.88;10514386;28;19920;-82
2023/03/08 03:27:36;;;;;;;;;;;;;;;-145.06;100.00;53847.84;10517615;28;20003;-82
2023/03/08 03:32:36;;;;;;;;;;;;;;;-145.06;100.00;53864.03;10516972;28;19911;-83
2023/03/08 03:37:36;;;;;;;;;;;;;;;-145.06;100.00;53815.44;10535563;28;20323;-83
2023/03/08 03:42:36;;;;;;;;;;;;;;;-145.06;100.00;53827.59;10516454;28;19911;-83
2023/03/08 03:47:37;;;;;;;;;;;;;;;-145.06;100.00;53819.47;10511530;28;19923;-82
2023/03/08 03:52:37;;;;;;;;;;;;;;;-145.06;100.00;53821.50;10535198;28;19919;-83
2023/03/08 03:57:37;;;;;;;;;;;;;;;-145.06;100.00;53857.97;10533842;28;19919;-80
2023/03/08 04:02:37;;;;;;;;;;;;;;;-145.06;100.00;53839.72;10516217;28;19930;-82
2023/03/08 04:07:37;;;;;;;;;;;;;;;-145.06;100.00;53823.53;10515937;28;19919;-83
2023/03/08 04:12:38;;;;;;;;;;;;;;;-145.06;100.00;53855.94;10514663;28;19916;-81
2023/03/08 04:17:38;;;;;;;;;;;;;;;-145.06;100.00;53862.00;10515912;28;20012;-82
2023/03/08 04:22:38;;;;;;;;;;;;;;;-145.06;100.00;53855.94;10530630;28;20414;-82
2023/03/08 04:27:38;;;;;;;;;;;;;;;-145.06;100.00;53876.19;10532250;28;19981;-82
2023/03/08 04:32:39;;;;;;;;;;;;;;;-145.06;100.00;53851.88;10514925;28;19912;-82
2023/03/08 04:37:39;;;;;;;;;;;;;;;-145.06;100.00;53807.31;10532443;28;19908;-83
2023/03/08 04:42:42;;;;;;;;;;;;;;;-145.06;100.00;53862.00;10531739;28;19912;-82
2023/03/08 04:47:42;;;;;;;;;;;;;;;-145.06;100.00;53845.81;10533625;28;19935;-83
2023/03/08 04:52:42;;;;;;;;;;;;;;;-145.06;100.00;53841.75;10515059;28;19914;-83
2023/03/08 04:57:43;;;;;;;;;;;;;;;-145.06;100.00;53811.38;10533342;28;19908;-83
2023/03/08 05:02:43;;;;;;;;;;;;;;;-145.06;100.00;53843.78;10479630;28;19914;-82
2023/03/08 05:07:43;;;;;;;;;;;;;;;-145.06;100.00;53876.19;10528484;28;19922;-83
2023/03/08 05:12:43;;;;;;;;;;;;;;;-145.06;100.00;53872.13;10507076;28;19908;-83
2023/03/08 05:17:43;;;;;;;;;;;;;;;-145.06;100.00;53884.28;10513373;28;20358;-83
2023/03/08 05:27:46;;;;;;;;;;;;;;;-145.06;100.00;53837.72;10498026;28;19924;-83
2023/03/08 05:32:46;;;;;;;;;;;;;;;-145.06;100.00;53851.88;10485904;28;20309;-85
2023/03/08 05:37:47;;;;;;;;;;;;;;;-145.06;100.00;53811.38;10498904;28;19923;-84
2023/03/08 05:42:47;;;;;;;;;;;;;;;-145.06;100.00;53839.72;10497571;28;19927;-84
2023/03/08 05:47:47;;;;;;;;;;;;;;;-145.06;100.00;53803.28;10474289;28;19926;-84
2023/03/08 05:52:47;;;;;;;;;;;;;;;-145.06;100.00;53896.44;10476525;28;19943;-84
2023/03/08 05:57:48;;;;;;;;;;;;;;;-145.06;100.00;53868.09;10494226;28;19912;-83
2023/03/08 06:02:48;;;;;;;;;;;;;;;-145.06;100.00;53805.31;10479560;28;19950;-84
2023/03/08 06:07:48;;;;;;;;;;;;;;;-145.06;100.00;53837.72;10497080;28;19927;-84
2023/03/08 06:12:48;;;;;;;;;;;;;;;-145.06;100.00;53859.97;10478291;28;19923;-83
2023/03/08 06:17:51;;;;;;;;;;;;;;;-145.06;100.00;53843.78;10479748;28;19909;-85
2023/03/08 06:22:51;;;;;;;;;;;;;;;-145.06;100.00;53835.69;10474268;28;19913;-84
2023/03/08 06:27:53;;;;;;;;;;;;;;;-145.06;100.00;53829.59;10475539;28;19913;-85
2023/03/08 06:32:53;;;;;;;;;;;;;;;-145.06;100.00;53841.75;10516130;28;19962;-84
2023/03/08 06:37:53;;;;;;;;;;;;;;;-145.06;100.00;53847.84;10492339;28;19943;-85
2023/03/08 06:42:55;;;;;;;;;;;;;;;-145.06;100.00;53835.69;10486749;28;19908;-85
2023/03/08 06:47:55;;;;;;;;;;;;;;;-145.06;100.00;53833.66;10489263;28;19909;-85
2023/03/08 06:52:55;;;;;;;;;;;;;;;-145.06;100.00;53807.31;10486197;28;20385;-84
2023/03/08 06:57:55;;;;;;;;;;;;;;;-145.06;100.00;53823.53;10503135;28;19920;-84
2023/03/08 07:02:56;;;;;;;;;;;;;;;-145.06;100.00;53815.44;10498925;28;20414;-84
2023/03/08 07:07:56;;;;;;;;;;;;;;;-145.06;100.00;53839.72;10483511;28;19919;-85
2023/03/08 07:12:57;;;;;;;;;;;;;;;-145.06;100.00;53805.31;10483980;28;19913;-85
2023/03/08 07:17:57;;;;;;;;;;;;;;;-145.06;100.00;53813.41;10504277;28;19919;-84
2023/03/08 07:23:00;;;;;;;;;;;;;;;-145.06;100.00;53797.22;10479089;28;19920;-85
2023/03/08 07:28:00;;;;;;;;;;;;;;;-145.06;100.00;53847.84;10510071;28;19915;-84
2023/03/08 07:33:01;;;;;;;;;;;;;;;-145.06;100.00;53829.59;10481408;28;19916;-85
2023/03/08 07:38:01;;;;;;;;;;;;;;;-145.06;100.00;53833.66;10481848;28;19980;-86
2023/03/08 07:43:01;;;;;;;;;;;;;;;-145.06;100.00;53827.59;10496667;28;19909;-85
2023/03/08 07:48:01;;;;;;;;;;;;;;;-145.06;100.00;53819.47;10509145;28;19915;-87
2023/03/08 07:53:03;;;;;;;;;;;;;;;-145.06;100.00;53831.63;10483540;28;19916;-86
2023/03/08 07:58:03;;;;;;;;;;;;;;;-145.06;100.00;53859.97;10482032;28;19919;-84
2023/03/08 08:03:03;;;;;;;;;;;;;;;-145.06;100.00;53835.69;10453443;28;19913;-86
2023/03/08 08:08:03;;;;;;;;;;;;;;;-145.06;100.00;53851.88;10499839;28;19913;-86
2023/03/08 08:13:04;;;;;;;;;;;;;;;-145.06;100.00;53839.72;10516305;28;19908;-85
2023/03/08 08:18:04;;;;;;;;;;;;;;;-145.06;100.00;53841.75;10509862;28;20302;-85
2023/03/08 08:23:05;;;;;;;;;;;;;;;-145.06;100.00;53827.59;10483656;28;19908;-85
2023/03/08 08:28:05;;;;;;;;;;;;;;;-145.06;100.00;53855.94;10485025;28;19998;-86
2023/03/08 08:33:05;;;;;;;;;;;;;;;-145.06;100.00;53809.34;10511522;28;19954;-86
2023/03/08 08:38:06;;;;;;;;;;;;;;;-145.06;100.00;53797.22;10501511;28;20053;-84
2023/03/08 08:43:06;;;;;;;;;;;;;;;-145.06;100.00;53829.59;10482919;28;20455;-86
2023/03/08 08:48:06;;;;;;;;;;;;;;;-145.06;100.00;53827.59;10488847;28;19912;-86
2023/03/08 08:53:07;;;;;;;;;;;;;;;-145.06;100.00;53845.81;10497290;28;19916;-86
2023/03/08 08:58:07;;;;;;;;;;;;;;;-145.06;100.00;53845.81;10489016;28;19946;-85
2023/03/08 09:03:08;;;;;;;;;;;;;;;-145.06;100.00;53874.16;10474981;28;19961;-85
2023/03/08 09:08:08;;;;;;;;;;;;;;;-145.06;100.00;53817.47;10507130;28;19912;-83
2023/03/08 09:13:09;;;;;;;;;;;;;;;-145.06;100.00;53783.03;10478153;28;19908;-85
2023/03/08 09:18:09;;;;;;;;;;;;;;;-145.06;100.00;53815.44;10507951;28;20389;-86
2023/03/08 09:23:10;;;;;;;;;;;;;;;-145.06;100.00;53829.59;10492686;28;20011;-85
2023/03/08 09:28:10;;;;;;;;;;;;;;;-145.06;100.00;53803.28;10471557;28;19934;-84
2023/03/08 09:33:10;;;;;;;;;;;;;;;-145.06;100.00;53855.94;10482257;28;19991;-83
2023/03/08 09:38:11;;;;;;;;;;;;;;;-145.06;100.00;53827.59;10488289;28;20011;-84
2023/03/08 09:43:19;;;;;;;;;;;;;;;-145.06;100.00;53827.59;10497994;28;19962;-84
2023/03/08 09:48:23;;;;;;;;;;;;;;;-145.06;100.00;53805.31;10512705;28;19908;-85
2023/03/08 09:53:29;;;;;;;;;;;;;;;-145.06;100.00;53803.28;10504518;28;19907;-85
2023/03/08 09:58:29;;;;;;;;;;;;;;;-145.06;100.00;53813.41;10499420;28;20382;-85
2023/03/08 10:03:32;;;;;;;;;;;;;;;-145.06;100.00;53841.75;10493098;28;20096;-89
2023/03/08 10:08:45;;;;;;;;;;;;;;;-145.06;100.00;53811.38;10504849;28;19908;-85
2023/03/08 10:13:47;;;;;;;;;;;;;;;-145.06;100.00;53821.50;10527341;28;19920;-87
2023/03/08 10:18:50;;;;;;;;;;;;;;;-145.06;100.00;53845.81;10513766;28;19912;-86
2023/03/08 10:23:56;;;;;;;;;;;;;;;-145.06;100.00;53801.25;10514910;28;20268;-85
2023/03/08 10:28:56;;;;;;;;;;;;;;;-145.06;100.00;53827.59;10501109;28;19912;-87
2023/03/08 10:34:10;;;;;;;;;;;;;;;-145.06;100.00;53807.31;10512763;28;19924;-87
2023/03/08 10:39:10;;;;;;;;;;;;;;;-145.06;100.00;53805.31;10509091;28;19915;-86
2023/03/08 10:44:15;;;;;;;;;;;;;;;-145.06;100.00;53807.31;10505762;28;19957;-85
2023/03/08 10:49:17;;;;;;;;;;;;;;;-145.06;100.00;53801.25;10501918;28;19913;-89
2023/03/08 10:54:18;;;;;;;;;;;;;;;-145.06;100.00;53835.69;10491901;28;19912;-87
2023/03/08 10:59:31;;;;;;;;;;;;;;;-145.06;100.00;53762.78;10500367;28;20029;-85
2023/03/08 11:04:31;;;;;;;;;;;;;;;-145.06;100.00;53821.50;10515209;28;19999;-87
2023/03/08 11:09:35;;;;;;;;;;;;;;;-145.06;100.00;53827.59;10513900;28;20402;-88
2023/03/08 11:14:36;;;;;;;;;;;;;;;-145.06;100.00;53762.78;10520852;28;19908;-86
2023/03/08 11:20:15;;;;;;;;;;;;;;;-145.06;100.00;53829.59;10481763;28;20011;-85
2023/03/08 11:25:31;;;;;;;;;;;;;;;-145.06;100.00;53815.44;10430875;22;20412;-83
2023/03/08 11:30:38;;;;;;;;;;;;;;;-145.06;100.00;53795.19;10535785;28;19965;-81
2023/03/08 11:35:44;;;;;;;;;;;;;;;-145.06;100.00;53770.88;10512444;28;19918;-82
2023/03/08 11:40:50;;;;;;;;;;;;;;;-145.06;100.00;53807.31;10506093;28;19970;-82
2023/03/08 11:46:09;;;;;;;;;;;;;;;-145.06;100.00;53787.06;10524763;28;19911;-82
2023/03/08 11:51:28;;;;;;;;;;;;;;;-145.06;100.00;53849.84;10516599;28;19920;-81
2023/03/08 11:56:32;;;;;;;;;;;;;;;-145.06;100.00;53797.22;10527848;28;19912;-82
2023/03/08 12:01:37;;;;;;;;;;;;;;;-145.06;100.00;53811.38;10540036;28;20282;-82
2023/03/08 12:06:39;;;;;;;;;;;;;;;-145.06;100.00;53783.03;10522928;28;19908;-82
2023/03/08 12:11:42;;;;;;;;;;;;;;;-145.06;100.00;53813.41;10541972;28;19912;-82
2023/03/08 12:16:45;;;;;;;;;;;;;;;-145.06;100.00;53809.34;10516223;28;19908;-82
2023/03/08 12:21:54;;;;;;;;;;;;;;;-145.06;100.00;53805.31;10523200;28;19918;-82
2023/03/08 12:26:57;;;;;;;;;;;;;;;-145.06;100.00;53797.22;10534087;28;19923;-82
2023/03/08 12:31:58;;;;;;;;;;;;;;;-145.06;100.00;53791.13;10525584;28;19908;-82
2023/03/08 12:36:59;;;;;;;;;;;;;;;-145.06;100.00;53785.06;10515811;28;19904;-83
2023/03/08 12:42:08;;;;;;;;;;;;;;;-145.06;100.00;53795.19;10519450;28;19912;-81
2023/03/08 12:47:12;;;;;;;;;;;;;;;-145.06;100.00;53797.22;10551769;28;19915;-81
2023/03/08 12:52:18;;;;;;;;;;;;;;;-145.06;100.00;53803.28;10528184;28;19916;-83
2023/03/08 12:57:21;;;;;;;;;;;;;;;-145.06;100.00;53827.59;10528696;28;19930;-83
2023/03/08 13:02:29;;;;;;;;;;;;;;;-145.06;100.00;53799.22;10521835;28;19935;-82
2023/03/08 13:07:37;;;;;;;;;;;;;;;-145.06;100.00;53770.88;10525224;28;20092;-82
2023/03/08 13:12:48;;;;;;;;;;;;;;;-145.06;100.00;53815.44;10528492;28;19931;-82
2023/03/08 13:17:48;;;;;;;;;;;;;;;-145.06;100.00;53807.31;10528132;28;19912;-82
2023/03/08 13:22:53;;;;;;;;;;;;;;;-145.06;100.00;53819.47;10528361;28;20457;-81
2023/03/08 13:27:56;;;;;;;;;;;;;;;-145.06;100.00;53823.53;10525450;28;19948;-82
2023/03/08 13:32:57;;;;;;;;;;;;;;;-145.06;100.00;53819.47;10539258;28;19939;-82
2023/03/08 13:37:59;;;;;;;;;;;;;;;-145.06;100.00;53787.06;10543190;28;19919;-82
2023/03/08 13:43:04;;;;;;;;;;;;;;;-145.06;100.00;53821.50;10531417;28;19908;-82
2023/03/08 13:48:06;;;;;;;;;;;;;;;-145.06;100.00;53849.84;10534505;28;19912;-81
2023/03/08 13:53:08;;;;;;;;;;;;;;;-145.06;100.00;53799.22;10543940;28;19916;-81
2023/03/08 13:58:17;;;;;;;;;;;;;;;-145.06;100.00;53781.00;10539326;28;19929;-82
2023/03/08 14:03:18;;;;;;;;;;;;;;;-145.06;100.00;53807.31;10529915;28;19908;-81
2023/03/08 14:08:25;;;;;;;;;;;;;;;-145.06;100.00;53793.16;10551337;28;20169;-81
2023/03/08 14:13:31;;;;;;;;;;;;;;;-145.06;100.00;53795.19;10518825;28;19919;-82
2023/03/08 14:18:39;;;;;;;;;;;;;;;-145.06;100.00;53785.06;10537375;28;19923;-82
2023/03/08 14:23:40;;;;;;;;;;;;;;;-145.06;100.00;53857.97;10533035;28;19912;-82
2023/03/08 14:28:41;;;;;;;;;;;;;;;-145.06;100.00;53831.63;10558638;28;19915;-82
2023/03/08 14:33:55;;;;;;;;;;;;;;;-145.06;100.00;53803.28;10551982;28;19914;-83
2023/03/08 14:38:58;;;;;;;;;;;;;;;-145.06;100.00;53827.59;10538035;28;19916;-82
2023/03/08 14:44:00;;;;;;;;;;;;;;;-145.06;100.00;53833.66;10534594;28;19908;-83
2023/03/08 14:49:02;;;;;;;;;;;;;;;-145.06;100.00;53787.06;10526180;28;20395;-82
2023/03/08 14:54:04;;;;;;;;;;;;;;;-145.06;100.00;53772.91;10559238;28;19908;-82
2023/03/08 14:59:04;;;;;;;;;;;;;;;-145.06;100.00;53825.56;10538099;28;19912;-82
2023/03/08 15:04:15;;;;;;;;;;;;;;;-145.06;100.00;53815.44;10542346;28;19940;-83
2023/03/08 15:09:17;;;;;;;;;;;;;;;-145.06;100.00;53841.75;10560515;28;19912;-82
2023/03/08 15:14:17;;;;;;;;;;;;;;;-145.06;100.00;53827.59;10552504;28;19918;-83
2023/03/08 15:19:17;;;;;;;;;;;;;;;-145.06;100.00;53819.47;10568854;28;19939;-83
2023/03/08 15:24:18;;;;;;;;;;;;;;;-145.06;100.00;53807.31;10556916;28;19919;-83
2023/03/08 15:29:24;;;;;;;;;;;;;;;-145.06;100.00;53882.25;10504950;28;20402;-83
2023/03/08 15:34:24;;;;;;;;;;;;;;;-145.06;100.00;53803.28;10498173;28;19915;-83
2023/03/08 15:39:25;;;;;;;;;;;;;;;-145.06;100.00;53817.47;10527873;28;19923;-83
2023/03/08 15:44:25;;;;;;;;;;;;;;;-145.06;100.00;53823.53;10502432;28;19915;-82
2023/03/08 15:49:25;;;;;;;;;;;;;;;-145.06;100.00;53831.63;10503133;28;19951;-84
2023/03/08 15:54:25;;;;;;;;;;;;;;;-145.06;100.00;53821.50;10521040;28;20007;-83
2023/03/08 15:59:26;;;;;;;;;;;;;;;-145.06;100.00;53799.22;10528285;28;19919;-83
2023/03/08 16:04:26;;;;;;;;;;;;;;;-145.06;100.00;53819.47;10513692;28;19919;-84
2023/03/08 16:09:26;;;;;;;;;;;;;;;-145.06;100.00;53833.66;10508963;28;19920;-83
2023/03/08 16:14:26;;;;;;;;;;;;;;;-145.06;100.00;53817.47;10529177;28;19912;-84
2023/03/08 16:19:29;;;;;;;;;;;;;;;-145.06;100.00;53801.25;10531283;28;19934;-83
2023/03/08 16:24:30;;;;;;;;;;;;;;;-145.06;100.00;53789.09;10518727;28;19912;-84
2023/03/08 16:29:31;;;;;;;;;;;;;;;-145.06;100.00;53843.78;10522172;28;19908;-83
2023/03/08 16:34:31;;;;;;;;;;;;;;;-145.06;100.00;53793.16;10508379;28;19908;-83
2023/03/08 16:39:31;;;;;;;;;;;;;;;-145.06;100.00;53835.69;10515498;28;19912;-83
2023/03/08 16:44:32;;;;;;;;;;;;;;;-145.06;100.00;53835.69;10511159;28;19962;-85
2023/03/08 16:49:32;;;;;;;;;;;;;;;-145.06;100.00;53835.69;10510573;28;19908;-84
2023/03/08 16:54:32;;;;;;;;;;;;;;;-145.06;100.00;53819.47;10524730;28;19916;-84
2023/03/08 16:59:33;;;;;;;;;;;;;;;-145.06;100.00;53793.16;10541530;28;19948;-84
2023/03/08 17:04:34;;;;;;;;;;;;;;;-145.06;100.00;53829.59;10517624;28;19908;-84
2023/03/08 17:09:34;;;;;;;;;;;;;;;-145.06;100.00;53839.72;10538393;28;20371;-83
2023/03/08 17:14:35;;;;;;;;;;;;;;;-145.06;100.00;53825.56;10507816;28;19912;-84
2023/03/08 17:19:35;;;;;;;;;;;;;;;-145.06;100.00;53847.84;10512668;28;19916;-83
2023/03/08 17:24:35;;;;;;;;;;;;;;;-145.06;100.00;53813.41;10508692;22;19979;-86
2023/03/08 17:29:35;;;;;;;;;;;;;;;-145.06;100.00;53835.69;10446053;28;20338;-86
2023/03/08 17:34:35;;;;;;;;;;;;;;;-145.06;100.00;53839.72;10454134;28;20290;-88
2023/03/08 17:39:36;;;;;;;;;;;;;;;-145.06;100.00;53791.13;10457372;28;19917;-87
2023/03/08 17:44:36;;;;;;;;;;;;;;;-145.06;100.00;53821.50;10447529;28;19919;-86
2023/03/08 17:49:37;;;;;;;;;;;;;;;-145.06;100.00;53815.44;10453189;28;19912;-87
2023/03/08 17:54:37;;;;;;;;;;;;;;;-145.06;100.00;53809.34;10454166;28;20363;-88
2023/03/08 17:59:37;;;;;;;;;;;;;;;-145.06;100.00;53803.28;10460991;28;19916;-88
2023/03/08 18:04:40;;;;;;;;;;;;;;;-145.06;100.00;53835.69;10447708;28;19920;-88
2023/03/08 18:09:43;;;;;;;;;;;;;;;-145.06;100.00;53799.22;10453472;28;19913;-88
2023/03/08 18:14:46;;;;;;;;;;;;;;;-145.06;100.00;53823.53;10457356;28;20008;-88
2023/03/08 18:19:46;;;;;;;;;;;;;;;-145.06;100.00;53855.94;10454248;28;20298;-88
2023/03/08 18:24:47;;;;;;;;;;;;;;;-145.06;100.00;53823.53;10450999;28;20192;-88
2023/03/08 18:29:47;;;;;;;;;;;;;;;-145.06;100.00;53821.50;10471725;28;20294;-88
2023/03/08 18:34:47;;;;;;;;;;;;;;;-145.06;100.00;53795.19;10447879;28;19909;-87
2023/03/08 18:39:51;;;;;;;;;;;;;;;-145.06;100.00;53841.75;10453402;28;20271;-88
2023/03/08 18:44:51;;;;;;;;;;;;;;;-145.06;100.00;53839.72;10467945;28;19920;-88
2023/03/08 18:49:52;;;;;;;;;;;;;;;-145.06;100.00;53825.56;10446090;28;19913;-88
2023/03/08 18:54:52;;;;;;;;;;;;;;;-145.06;100.00;53829.59;10445298;28;19909;-86
2023/03/08 18:59:52;;;;;;;;;;;;;;;-145.06;100.00;53859.97;10454673;28;19918;-88
2023/03/08 19:04:52;;;;;;;;;;;;;;;-145.06;100.00;53813.41;10452401;28;19916;-88
2023/03/08 19:09:53;;;;;;;;;;;;;;;-145.06;100.00;53805.31;10454251;28;19915;-88
2023/03/08 19:14:53;;;;;;;;;;;;;;;-145.06;100.00;53817.47;10463886;28;19954;-88
2023/03/08 19:19:54;;;;;;;;;;;;;;;-145.06;100.00;53807.31;10444708;28;19916;-88
2023/03/08 19:24:54;;;;;;;;;;;;;;;-145.06;100.00;53831.63;10456519;28;19913;-87
2023/03/08 19:29:54;;;;;;;;;;;;;;;-145.06;100.00;53833.66;10449796;28;19939;-88
2023/03/08 19:34:54;;;;;;;;;;;;;;;-145.06;100.00;53849.84;10450463;28;19916;-88
2023/03/08 19:39:54;;;;;;;;;;;;;;;-145.06;100.00;53845.81;10446735;28;19913;-88
2023/03/08 19:44:55;;;;;;;;;;;;;;;-145.06;100.00;53809.34;10453896;28;20016;-87
2023/03/08 19:49:55;;;;;;;;;;;;;;;-145.06;100.00;53843.78;10465278;28;20282;-88
2023/03/08 19:54:55;;;;;;;;;;;;;;;-145.06;100.00;53799.22;10489609;28;19908;-88
2023/03/08 19:59:55;;;;;;;;;;;;;;;-145.06;100.00;53817.47;10460557;28;19913;-88
2023/03/08 20:04:55;;;;;;;;;;;;;;;-145.06;100.00;53843.78;10453764;28;19912;-88
2023/03/08 20:09:56;;;;;;;;;;;;;;;-145.06;100.00;53851.88;10445512;28;19908;-88
2023/03/08 20:14:56;;;;;;;;;;;;;;;-145.06;100.00;53783.03;10463950;28;19999;-88
2023/03/08 20:19:56;;;;;;;;;;;;;;;-145.06;100.00;53847.84;10473057;28;20379;-86
2023/03/08 20:24:56;;;;;;;;;;;;;;;-145.06;100.00;53894.41;10469974;28;20287;-86
2023/03/08 20:29:56;;;;;;;;;;;;;;;-145.06;100.00;53815.44;10462215;28;19909;-87
2023/03/08 20:34:57;;;;;;;;;;;;;;;-145.06;100.00;53843.78;10488558;28;19974;-87
2023/03/08 20:39:57;;;;;;;;;;;;;;;-145.06;100.00;53851.88;10474483;28;19912;-87
2023/03/08 20:44:58;;;;;;;;;;;;;;;-145.06;100.00;53835.69;10452517;28;19908;-87
2023/03/08 20:49:58;;;;;;;;;;;;;;;-145.06;100.00;53827.59;10461647;28;19965;-87
2023/03/08 20:54:58;;;;;;;;;;;;;;;-145.06;100.00;53847.84;10462705;28;19916;-86
2023/03/08 20:59:58;;;;;;;;;;;;;;;-145.06;100.00;53859.97;10481270;28;19927;-87
2023/03/08 21:04:59;;;;;;;;;;;;;;;-145.06;100.00;53851.88;10450999;28;19915;-86
2023/03/08 21:09:59;;;;;;;;;;;;;;;-145.06;100.00;53801.25;10474008;28;20114;-87
2023/03/08 21:15:00;;;;;;;;;;;;;;;-145.06;100.00;53819.47;10457832;28;20124;-86
2023/03/08 21:20:00;;;;;;;;;;;;;;;-145.06;100.00;53831.63;10453477;28;19917;-86
2023/03/08 21:25:00;;;;;;;;;;;;;;;-145.06;100.00;53825.56;10449577;28;20337;-86
2023/03/08 21:30:01;;;;;;;;;;;;;;;-145.06;100.00;53835.69;10460213;28;19913;-86
2023/03/08 21:35:02;;;;;;;;;;;;;;;-145.06;100.00;53862.00;10460101;28;19915;-87
2023/03/08 21:40:04;;;;;;;;;;;;;;;-145.06;100.00;53809.34;10461637;28;19916;-87
2023/03/08 21:45:05;;;;;;;;;;;;;;;-145.06;100.00;53882.25;10463058;28;19909;-86
2023/03/08 21:50:06;;;;;;;;;;;;;;;-145.06;100.00;53853.91;10452106;28;19912;-86
2023/03/08 21:55:06;;;;;;;;;;;;;;;-145.06;100.00;53803.28;10461841;28;19917;-86
2023/03/08 22:00:07;;;;;;;;;;;;;;;-145.06;100.00;53847.84;10450671;28;19912;-86
2023/03/08 22:05:07;;;;;;;;;;;;;;;-145.06;100.00;53821.50;10474446;28;19908;-86
2023/03/08 22:10:10;;;;;;;;;;;;;;;-145.06;100.00;53847.84;10460486;28;20000;-86
2023/03/08 22:15:11;;;;;;;;;;;;;;;-145.06;100.00;53807.31;10470683;28;19934;-86
2023/03/08 22:20:11;;;;;;;;;;;;;;;-145.06;100.00;53817.47;10467388;28;20020;-86
2023/03/08 22:25:11;;;;;;;;;;;;;;;-145.06;100.00;53849.84;10455720;28;19912;-87
2023/03/08 22:30:13;;;;;;;;;;;;;;;-145.06;100.00;53843.78;10455712;28;19928;-86
2023/03/08 22:35:13;;;;;;;;;;;;;;;-145.06;100.00;53870.09;10461513;28;20382;-86
2023/03/08 22:40:14;;;;;;;;;;;;;;;-145.06;100.00;53849.84;10462169;28;19959;-86
2023/03/08 22:45:14;;;;;;;;;;;;;;;-145.06;100.00;53835.69;10460658;28;19935;-86
2023/03/08 22:50:14;;;;;;;;;;;;;;;-145.06;100.00;53849.84;10463528;28;19913;-86
2023/03/08 22:55:14;;;;;;;;;;;;;;;-145.06;100.00;53849.84;10489749;28;19956;-86
2023/03/08 23:00:16;;;;;;;;;;;;;;;-145.06;100.00;53855.94;10467524;28;19924;-86
2023/03/08 23:05:18;;;;;;;;;;;;;;;-145.06;100.00;53801.25;10454174;28;19908;-86
2023/03/08 23:10:20;;;;;;;;;;;;;;;-145.06;100.00;53849.84;10467225;28;19909;-85
2023/03/08 23:15:20;;;;;;;;;;;;;;;-145.06;100.00;53807.31;10493066;28;19917;-86
2023/03/08 23:20:21;;;;;;;;;;;;;;;-145.06;100.00;53859.97;10477153;28;20367;-86
2023/03/08 23:25:21;;;;;;;;;;;;;;;-145.06;100.00;53849.84;10466188;28;20330;-86
2023/03/08 23:30:21;;;;;;;;;;;;;;;-145.06;100.00;53847.84;10509920;23;19923;-85
2023/03/08 23:35:22;;;;;;;;;;;;;;;-145.06;100.00;53843.78;10525393;28;19916;-85
2023/03/08 23:40:22;;;;;;;;;;;;;;;-145.06;100.00;53813.41;10523265;28;19916;-83
2023/03/08 23:45:22;;;;;;;;;;;;;;;-145.06;100.00;53859.97;10544728;28;19912;-85
2023/03/08 23:50:22;;;;;;;;;;;;;;;-145.06;100.00;53831.63;10525069;28;19943;-84
2023/03/08 23:55:23;;;;;;;;;;;;;;;-145.06;100.00;53847.84;10542127;28;19916;-83
